createdAt,value
2022-10-23T00:01:42.192Z,15.90
2022-10-23T00:04:15.587Z,15.90
2022-10-23T00:06:43.962Z,15.90
2022-10-23T00:09:12.988Z,16.20
2022-10-23T00:11:41.664Z,16.50
2022-10-23T00:14:09.205Z,16.40
2022-10-23T00:16:37.212Z,16.30
2022-10-23T00:19:06.038Z,16.30
2022-10-23T00:21:33.534Z,16.30
2022-10-23T00:24:01.066Z,16.20
2022-10-23T00:26:28.652Z,16.10
2022-10-23T00:28:56.192Z,16.20
2022-10-23T00:31:24.392Z,16.30
2022-10-23T00:33:52.462Z,16.50
2022-10-23T00:36:21.416Z,16.60
2022-10-23T00:38:49.939Z,16.50
2022-10-23T00:41:22.752Z,16.40
2022-10-23T00:43:56.334Z,16.20
2022-10-23T00:46:23.788Z,16.00
2022-10-23T00:48:51.267Z,16.00
2022-10-23T00:51:19.116Z,16.00
2022-10-23T00:54:01.108Z,16.10
2022-10-23T00:56:39.650Z,16.00
2022-10-23T00:59:07.811Z,16.00
2022-10-23T01:01:35.295Z,15.90
2022-10-23T01:04:04.744Z,16.30
2022-10-23T01:06:43.058Z,16.50
2022-10-23T01:09:23.793Z,16.50
2022-10-23T01:12:00.475Z,16.40
2022-10-23T01:15:04.102Z,16.10
2022-10-23T01:17:42.352Z,16.10
2022-10-23T01:20:44.407Z,16.20
2022-10-23T01:23:32.425Z,16.20
2022-10-23T01:26:22.457Z,16.30
2022-10-23T01:28:52.781Z,16.30
2022-10-23T01:31:48.122Z,16.10
2022-10-23T01:34:22.362Z,16.00
2022-10-23T01:36:53.881Z,15.90
2022-10-23T01:39:27.714Z,15.70
2022-10-23T01:42:23.243Z,15.70
2022-10-23T01:45:25.553Z,15.70
2022-10-23T01:47:54.561Z,15.60
2022-10-23T01:50:24.714Z,15.40
2022-10-23T01:52:59.025Z,15.50
2022-10-23T01:55:26.739Z,15.80
2022-10-23T01:57:56.770Z,15.80
2022-10-23T02:00:35.012Z,15.90
2022-10-23T02:03:04.626Z,15.90
2022-10-23T02:05:34.230Z,15.70
2022-10-23T02:08:03.860Z,15.60
2022-10-23T02:10:56.775Z,15.50
2022-10-23T02:13:40.977Z,15.60
2022-10-23T02:16:35.176Z,15.50
2022-10-23T02:19:20.687Z,15.40
2022-10-23T02:21:52.145Z,15.40
2022-10-23T02:24:45.056Z,15.40
2022-10-23T02:27:17.263Z,15.60
2022-10-23T02:29:56.687Z,15.70
2022-10-23T02:32:27.308Z,15.50
2022-10-23T02:34:55.017Z,15.70
2022-10-23T02:37:25.479Z,16.00
2022-10-23T02:39:54.287Z,16.00
2022-10-23T02:42:45.111Z,16.00
2022-10-23T02:45:29.843Z,16.10
2022-10-23T02:48:04.701Z,16.00
2022-10-23T02:50:50.401Z,15.90
2022-10-23T02:53:25.917Z,15.80
2022-10-23T02:56:17.938Z,15.90
2022-10-23T02:58:56.751Z,16.00
2022-10-23T03:01:51.113Z,15.90
2022-10-23T03:04:21.837Z,15.70
2022-10-23T03:06:51.115Z,15.40
2022-10-23T03:09:19.134Z,15.30
2022-10-23T03:11:46.631Z,15.20
2022-10-23T03:14:14.606Z,15.20
2022-10-23T03:16:42.026Z,15.10
2022-10-23T03:21:41.258Z,15.40
2022-10-23T03:24:09.321Z,15.70
2022-10-23T03:26:43.101Z,15.90
2022-10-23T03:29:10.886Z,16.00
2022-10-23T03:31:44.185Z,16.00
2022-10-23T03:34:11.662Z,15.70
2022-10-23T03:36:41.691Z,15.50
2022-10-23T03:39:10.594Z,15.20
2022-10-23T03:41:38.034Z,15.20
2022-10-23T03:46:38.042Z,15.10
2022-10-23T03:49:05.763Z,15.20
2022-10-23T03:51:33.216Z,15.30
2022-10-23T03:54:00.681Z,15.30
2022-10-23T03:56:28.212Z,15.50
2022-10-23T03:58:55.653Z,15.60
2022-10-23T04:01:26.374Z,15.40
2022-10-23T04:03:53.961Z,15.20
2022-10-23T04:06:21.850Z,14.90
2022-10-23T04:08:49.793Z,14.90
2022-10-23T04:11:18.285Z,14.80
2022-10-23T04:13:47.381Z,14.70
2022-10-23T04:16:15.369Z,14.60
2022-10-23T04:18:44.886Z,14.70
2022-10-23T04:21:12.752Z,14.60
2022-10-23T04:23:40.295Z,14.90
2022-10-23T04:26:13.440Z,15.00
2022-10-23T04:28:40.844Z,15.30
2022-10-23T04:31:08.232Z,15.20
2022-10-23T04:33:35.759Z,15.00
2022-10-23T04:36:03.440Z,14.90
2022-10-23T04:38:30.903Z,14.80
2022-10-23T04:40:58.318Z,14.70
2022-10-23T04:43:25.824Z,14.60
2022-10-23T04:45:53.335Z,14.60
2022-10-23T04:48:25.539Z,14.50
2022-10-23T04:51:14.473Z,14.40
2022-10-23T04:54:05.087Z,14.60
2022-10-23T04:56:50.890Z,14.60
2022-10-23T04:59:21.635Z,14.70
2022-10-23T05:01:49.618Z,14.80
2022-10-23T05:04:17.856Z,15.20
2022-10-23T05:07:08.376Z,15.30
2022-10-23T05:10:04.993Z,15.00
2022-10-23T05:12:43.940Z,14.80
2022-10-23T05:15:11.393Z,14.60
2022-10-23T05:17:43.171Z,14.70
2022-10-23T05:20:18.367Z,14.60
2022-10-23T05:22:50.264Z,14.60
2022-10-23T05:25:20.950Z,14.50
2022-10-23T05:27:53.049Z,14.30
2022-10-23T05:30:21.860Z,14.30
2022-10-23T05:32:49.484Z,14.30
2022-10-23T05:35:23.434Z,14.20
2022-10-23T05:37:54.905Z,14.20
2022-10-23T05:40:25.262Z,14.20
2022-10-23T05:42:59.131Z,14.20
2022-10-23T05:45:37.175Z,14.70
2022-10-23T05:48:35.427Z,15.10
2022-10-23T05:51:26.816Z,15.40
2022-10-23T05:53:59.309Z,15.40
2022-10-23T05:56:32.869Z,15.00
2022-10-23T05:59:23.015Z,14.80
2022-10-23T06:02:00.635Z,14.70
2022-10-23T06:04:42.770Z,14.80
2022-10-23T06:07:32.442Z,14.80
2022-10-23T06:10:06.030Z,14.70
2022-10-23T06:12:36.079Z,14.60
2022-10-23T06:15:04.852Z,14.50
2022-10-23T06:17:52.213Z,14.40
2022-10-23T06:20:21.058Z,14.50
2022-10-23T06:23:00.814Z,14.60
2022-10-23T06:25:53.601Z,14.70
2022-10-23T06:28:26.219Z,14.90
2022-10-23T06:30:54.366Z,14.90
2022-10-23T06:33:21.841Z,15.10
2022-10-23T06:35:49.960Z,15.30
2022-10-23T06:38:17.628Z,15.40
2022-10-23T06:40:57.896Z,15.40
2022-10-23T06:43:32.611Z,15.60
2022-10-23T06:46:20.444Z,15.70
2022-10-23T06:49:06.334Z,15.70
2022-10-23T06:51:39.889Z,15.90
2022-10-23T06:54:12.011Z,16.00
2022-10-23T06:56:51.550Z,16.30
2022-10-23T06:59:23.418Z,16.40
2022-10-23T07:04:25.487Z,16.80
2022-10-23T07:06:57.439Z,17.10
2022-10-23T07:09:30.583Z,17.30
2022-10-23T07:12:18.262Z,17.50
2022-10-23T07:14:51.211Z,17.70
2022-10-23T07:17:18.750Z,17.90
2022-10-23T07:19:49.504Z,18.00
2022-10-23T07:22:17.212Z,18.20
2022-10-23T07:24:48.595Z,18.40
2022-10-23T07:27:22.107Z,18.50
2022-10-23T07:29:55.897Z,18.40
2022-10-23T07:32:24.730Z,18.50
2022-10-23T07:34:55.203Z,18.60
2022-10-23T07:37:30.160Z,18.70
2022-10-23T07:39:59.706Z,18.80
2022-10-23T07:42:27.147Z,19.00
2022-10-23T07:44:54.665Z,19.10
2022-10-23T07:47:22.325Z,19.20
2022-10-23T07:49:51.975Z,19.20
2022-10-23T07:52:20.786Z,19.20
2022-10-23T07:55:14.367Z,19.30
2022-10-23T07:57:48.225Z,19.20
2022-10-23T08:00:25.792Z,19.20
2022-10-23T08:03:01.006Z,19.20
2022-10-23T08:05:28.747Z,19.30
2022-10-23T08:08:00.329Z,19.40
2022-10-23T08:10:27.903Z,19.60
2022-10-23T08:12:55.494Z,19.70
2022-10-23T08:15:37.197Z,19.90
2022-10-23T08:18:13.434Z,20.00
2022-10-23T08:20:47.343Z,20.20
2022-10-23T08:23:18.519Z,20.50
2022-10-23T08:25:46.975Z,20.70
2022-10-23T08:28:16.614Z,20.90
2022-10-23T08:30:53.702Z,21.10
2022-10-23T08:33:21.516Z,21.00
2022-10-23T08:35:49.375Z,21.00
2022-10-23T08:38:24.449Z,20.90
2022-10-23T08:40:52.742Z,20.70
2022-10-23T08:43:43.773Z,20.70
2022-10-23T08:46:30.058Z,20.60
2022-10-23T08:49:50.360Z,20.80
2022-10-23T08:52:30.722Z,20.80
2022-10-23T08:55:23.433Z,20.90
2022-10-23T08:57:59.071Z,21.40
2022-10-23T09:00:27.854Z,21.60
2022-10-23T09:02:56.158Z,21.60
2022-10-23T09:05:58.041Z,21.40
2022-10-23T09:08:53.538Z,21.50
2022-10-23T09:11:32.676Z,21.20
2022-10-23T09:14:15.420Z,21.40
2022-10-23T09:17:01.692Z,21.50
2022-10-23T09:19:31.353Z,21.50
2022-10-23T09:21:59.551Z,21.60
2022-10-23T09:24:31.790Z,21.60
2022-10-23T09:27:00.645Z,21.70
2022-10-23T09:29:32.813Z,21.70
2022-10-23T09:32:03.176Z,22.00
2022-10-23T09:34:32.500Z,22.10
2022-10-23T09:37:21.380Z,21.70
2022-10-23T09:39:49.110Z,21.70
2022-10-23T09:42:24.855Z,21.80
2022-10-23T09:44:54.671Z,21.70
2022-10-23T09:47:24.981Z,21.70
2022-10-23T09:49:57.329Z,21.80
2022-10-23T09:52:24.670Z,21.80
2022-10-23T09:54:55.743Z,21.80
2022-10-23T09:57:31.011Z,21.70
2022-10-23T10:00:12.479Z,21.80
2022-10-23T10:02:41.736Z,21.80
2022-10-23T10:05:35.025Z,22.00
2022-10-23T10:08:20.468Z,21.90
2022-10-23T10:10:50.321Z,21.80
2022-10-23T10:13:44.666Z,21.90
2022-10-23T10:16:29.277Z,22.00
2022-10-23T10:19:21.265Z,22.10
2022-10-23T10:22:13.317Z,22.10
2022-10-23T10:24:58.372Z,22.20
2022-10-23T10:27:42.908Z,22.40
2022-10-23T10:30:15.923Z,22.50
2022-10-23T10:33:15.364Z,22.20
2022-10-23T10:35:48.134Z,22.30
2022-10-23T10:38:40.397Z,22.30
2022-10-23T10:41:29.944Z,22.20
2022-10-23T10:44:13.042Z,22.20
2022-10-23T10:46:59.788Z,22.30
2022-10-23T10:49:39.836Z,22.50
2022-10-23T10:52:52.808Z,22.50
2022-10-23T10:55:26.911Z,22.50
2022-10-23T10:58:00.062Z,22.40
2022-10-23T11:00:31.153Z,22.50
2022-10-23T11:03:19.863Z,22.50
2022-10-23T11:05:50.469Z,22.40
2022-10-23T11:08:50.032Z,22.50
2022-10-23T11:11:33.361Z,22.40
2022-10-23T11:14:01.025Z,22.50
2022-10-23T11:16:37.803Z,22.50
2022-10-23T11:19:25.615Z,22.60
2022-10-23T11:21:59.202Z,22.70
2022-10-23T11:24:45.317Z,22.50
2022-10-23T11:27:42.014Z,22.80
2022-10-23T11:30:18.795Z,22.70
2022-10-23T11:32:55.085Z,22.60
2022-10-23T11:35:49.745Z,22.70
2022-10-23T11:38:38.689Z,22.60
2022-10-23T11:41:21.063Z,22.70
2022-10-23T11:43:56.979Z,22.50
2022-10-23T11:46:27.425Z,22.60
2022-10-23T11:48:56.593Z,22.50
2022-10-23T11:51:36.286Z,22.80
2022-10-23T11:54:15.331Z,22.80
2022-10-23T11:57:12.093Z,22.90
2022-10-23T11:59:45.634Z,22.80
2022-10-23T12:02:38.827Z,23.00
2022-10-23T12:05:09.816Z,23.00
2022-10-23T12:07:39.869Z,23.10
2022-10-23T12:10:34.907Z,23.00
2022-10-23T12:13:05.915Z,23.20
2022-10-23T12:15:34.919Z,23.20
2022-10-23T12:18:14.909Z,23.50
2022-10-23T12:20:48.605Z,23.60
2022-10-23T12:23:45.847Z,23.60
2022-10-23T12:26:25.847Z,23.60
2022-10-23T12:29:30.594Z,23.50
2022-10-23T12:32:24.329Z,23.60
2022-10-23T12:35:21.226Z,23.60
2022-10-23T12:38:15.996Z,23.50
2022-10-23T12:40:52.610Z,23.70
2022-10-23T12:43:35.873Z,23.60
2022-10-23T12:46:43.525Z,23.60
2022-10-23T12:49:17.749Z,23.50
2022-10-23T12:51:45.348Z,23.40
2022-10-23T12:54:20.535Z,23.20
2022-10-23T12:56:48.812Z,23.10
2022-10-23T12:59:23.284Z,23.20
2022-10-23T13:01:52.944Z,23.30
2022-10-23T13:04:26.873Z,23.30
2022-10-23T13:06:57.267Z,23.40
2022-10-23T13:09:35.915Z,23.40
2022-10-23T13:12:35.421Z,23.30
2022-10-23T13:15:10.864Z,23.20
2022-10-23T13:17:46.966Z,23.10
2022-10-23T13:20:20.494Z,23.10
2022-10-23T13:23:08.310Z,22.80
2022-10-23T13:25:38.103Z,22.90
2022-10-23T13:28:08.265Z,22.80
2022-10-23T13:30:42.764Z,22.80
2022-10-23T13:33:32.187Z,22.90
2022-10-23T13:36:06.287Z,22.90
2022-10-23T13:38:36.274Z,23.10
2022-10-23T13:41:06.399Z,23.20
2022-10-23T13:43:35.343Z,23.40
2022-10-23T13:46:02.860Z,23.40
2022-10-23T13:48:31.872Z,23.40
2022-10-23T13:51:11.605Z,23.50
2022-10-23T13:53:39.059Z,23.50
2022-10-23T13:56:06.659Z,23.60
2022-10-23T13:58:34.035Z,23.60
2022-10-23T14:01:01.642Z,23.60
2022-10-23T14:03:29.036Z,23.60
2022-10-23T14:05:56.434Z,23.60
2022-10-23T14:08:23.907Z,23.60
2022-10-23T14:10:51.324Z,23.50
2022-10-23T14:13:18.776Z,23.40
2022-10-23T14:15:56.313Z,23.30
2022-10-23T14:18:24.491Z,23.40
2022-10-23T14:20:51.891Z,23.40
2022-10-23T14:23:19.288Z,23.30
2022-10-23T14:25:46.765Z,23.30
2022-10-23T14:28:14.250Z,23.30
2022-10-23T14:30:42.016Z,23.30
2022-10-23T14:33:09.419Z,23.40
2022-10-23T14:35:41.036Z,23.50
2022-10-23T14:38:08.457Z,23.40
2022-10-23T14:40:39.403Z,23.40
2022-10-23T14:43:07.004Z,23.50
2022-10-23T14:45:34.493Z,23.50
2022-10-23T14:48:02.564Z,23.60
2022-10-23T14:50:35.539Z,23.60
2022-10-23T14:53:02.991Z,23.60
2022-10-23T14:55:30.898Z,23.40
2022-10-23T14:57:58.286Z,23.30
2022-10-23T15:00:25.792Z,23.40
2022-10-23T15:02:53.155Z,23.30
2022-10-23T15:05:20.554Z,23.30
2022-10-23T15:07:48.245Z,23.30
2022-10-23T15:10:18.791Z,23.40
2022-10-23T15:12:46.686Z,23.40
2022-10-23T15:15:14.401Z,23.30
2022-10-23T15:17:42.337Z,23.20
2022-10-23T15:20:10.205Z,23.20
2022-10-23T15:22:37.732Z,23.10
2022-10-23T15:25:05.713Z,23.10
2022-10-23T15:27:33.130Z,23.10
2022-10-23T15:30:00.548Z,23.00
2022-10-23T15:32:27.979Z,23.00
2022-10-23T15:34:56.695Z,22.90
2022-10-23T15:37:24.398Z,22.90
2022-10-23T15:39:52.376Z,22.90
2022-10-23T15:42:19.992Z,22.80
2022-10-23T15:44:47.558Z,22.70
2022-10-23T15:47:15.325Z,22.60
2022-10-23T15:49:42.951Z,22.60
2022-10-23T15:54:43.278Z,22.20
2022-10-23T15:57:10.949Z,21.90
2022-10-23T15:59:38.452Z,21.70
2022-10-23T16:02:06.096Z,21.50
2022-10-23T16:04:34.213Z,21.20
2022-10-23T16:07:01.670Z,21.00
2022-10-23T16:09:29.773Z,20.80
2022-10-23T16:11:57.164Z,20.90
2022-10-23T16:14:24.564Z,20.70
2022-10-23T16:16:52.057Z,20.90
2022-10-23T16:19:19.616Z,20.90
2022-10-23T16:21:46.999Z,21.10
2022-10-23T16:24:14.471Z,21.20
2022-10-23T16:26:42.035Z,20.90
2022-10-23T16:29:09.624Z,20.90
2022-10-23T16:31:37.492Z,21.00
2022-10-23T16:34:05.575Z,21.10
2022-10-23T16:36:33.635Z,21.10
2022-10-23T16:39:15.331Z,21.00
2022-10-23T16:42:01.519Z,20.50
2022-10-23T16:44:41.787Z,20.70
2022-10-23T16:47:09.356Z,20.80
2022-10-23T16:49:36.745Z,20.90
2022-10-23T16:52:04.241Z,20.70
2022-10-23T16:54:31.824Z,20.60
2022-10-23T16:56:59.295Z,20.50
2022-10-23T16:59:26.815Z,20.50
2022-10-23T17:01:54.409Z,20.60
2022-10-23T17:04:21.905Z,20.60
2022-10-23T17:06:49.292Z,20.60
2022-10-23T17:09:19.235Z,20.60
2022-10-23T17:11:48.018Z,20.60
2022-10-23T17:14:18.639Z,20.60
2022-10-23T17:16:48.704Z,20.60
2022-10-23T17:19:43.395Z,20.50
2022-10-23T17:22:10.643Z,20.50
2022-10-23T17:24:44.155Z,20.60
2022-10-23T17:27:13.858Z,20.60
2022-10-23T17:29:41.273Z,20.50
2022-10-23T17:32:08.823Z,20.50
2022-10-23T17:34:36.314Z,20.40
2022-10-23T17:37:03.782Z,20.30
2022-10-23T17:39:31.192Z,20.20
2022-10-23T17:41:59.070Z,20.20
2022-10-23T17:44:26.602Z,20.10
2022-10-23T17:46:55.054Z,20.10
2022-10-23T17:49:24.256Z,20.00
2022-10-23T17:51:56.724Z,20.00
2022-10-23T17:54:26.362Z,20.00
2022-10-23T17:56:53.960Z,20.00
2022-10-23T17:59:21.627Z,19.90
2022-10-23T18:01:49.782Z,19.90
2022-10-23T18:04:19.675Z,19.80
2022-10-23T18:06:50.381Z,19.40
2022-10-23T18:09:18.377Z,19.30
2022-10-23T18:11:48.118Z,19.40
2022-10-23T18:14:19.250Z,19.40
2022-10-23T18:16:46.694Z,19.00
2022-10-23T18:19:17.209Z,18.80
2022-10-23T18:21:44.906Z,18.70
2022-10-23T18:24:12.362Z,18.80
2022-10-23T18:26:41.512Z,18.60
2022-10-23T18:29:10.837Z,18.40
2022-10-23T18:31:39.408Z,18.10
2022-10-23T18:34:12.213Z,18.00
2022-10-23T18:36:40.862Z,18.20
2022-10-23T18:39:11.181Z,18.50
2022-10-23T18:41:41.487Z,18.30
2022-10-23T18:44:10.399Z,18.10
2022-10-23T18:46:38.102Z,18.20
2022-10-23T18:49:05.708Z,18.30
2022-10-23T18:51:35.466Z,18.50
2022-10-23T18:54:06.564Z,18.40
2022-10-23T18:56:35.959Z,18.10
2022-10-23T18:59:05.539Z,17.90
2022-10-23T19:01:34.172Z,17.70
2022-10-23T19:04:02.563Z,17.50
2022-10-23T19:06:31.126Z,17.60
2022-10-23T19:08:59.031Z,17.50
2022-10-23T19:11:28.791Z,17.30
2022-10-23T19:13:56.264Z,17.20
2022-10-23T19:16:45.345Z,17.40
2022-10-23T19:19:19.310Z,17.60
2022-10-23T19:21:47.699Z,17.40
2022-10-23T19:24:19.926Z,17.30
2022-10-23T19:26:47.951Z,17.10
2022-10-23T19:29:18.756Z,17.00
2022-10-23T19:31:49.380Z,16.80
2022-10-23T19:34:20.056Z,16.70
2022-10-23T19:36:48.199Z,16.60
2022-10-23T19:39:16.905Z,16.70
2022-10-23T19:41:44.723Z,16.70
2022-10-23T19:44:14.181Z,16.60
2022-10-23T19:46:41.636Z,16.60
2022-10-23T19:49:10.329Z,16.50
2022-10-23T19:51:38.428Z,16.30
2022-10-23T19:54:06.635Z,16.60
2022-10-23T19:56:34.090Z,17.00
2022-10-23T19:59:01.464Z,17.30
2022-10-23T20:01:29.089Z,17.40
2022-10-23T20:03:57.506Z,17.10
2022-10-23T20:06:31.396Z,16.70
2022-10-23T20:08:58.853Z,16.60
2022-10-23T20:11:30.168Z,16.50
2022-10-23T20:13:58.808Z,16.40
2022-10-23T20:16:32.528Z,16.70
2022-10-23T20:19:02.848Z,16.90
2022-10-23T20:21:30.542Z,16.70
2022-10-23T20:23:59.162Z,16.50
2022-10-23T20:26:26.738Z,16.30
2022-10-23T20:28:56.043Z,16.30
2022-10-23T20:31:25.392Z,16.20
2022-10-23T20:33:54.459Z,16.10
2022-10-23T20:36:39.318Z,16.10
2022-10-23T20:39:15.011Z,16.00
2022-10-23T20:41:44.199Z,15.90
2022-10-23T20:44:14.378Z,15.80
2022-10-23T20:46:42.195Z,15.80
2022-10-23T20:49:10.895Z,15.80
2022-10-23T20:51:38.538Z,15.80
2022-10-23T20:54:06.392Z,15.90
2022-10-23T20:56:36.312Z,16.00
2022-10-23T20:59:23.930Z,15.90
2022-10-23T21:01:53.450Z,15.90
2022-10-23T21:04:24.389Z,15.80
2022-10-23T21:07:11.710Z,15.70
2022-10-23T21:09:39.924Z,15.70
2022-10-23T21:12:08.213Z,15.70
2022-10-23T21:14:36.090Z,15.60
2022-10-23T21:17:03.919Z,15.70
2022-10-23T21:19:31.380Z,15.70
2022-10-23T21:21:58.814Z,15.70
2022-10-23T21:24:26.270Z,15.80
2022-10-23T21:26:53.675Z,15.90
2022-10-23T21:29:21.206Z,16.10
2022-10-23T21:31:53.939Z,16.30
2022-10-23T21:34:22.361Z,16.40
2022-10-23T21:39:37.266Z,16.00
2022-10-23T21:42:04.921Z,15.80
2022-10-23T21:44:32.417Z,16.20
2022-10-23T21:47:00.045Z,16.10
2022-10-23T21:49:27.511Z,15.90
2022-10-23T21:51:55.236Z,15.80
2022-10-23T21:54:23.261Z,15.80
2022-10-23T21:56:53.890Z,15.80
2022-10-23T21:59:28.999Z,15.70
2022-10-23T22:01:59.500Z,15.60
2022-10-23T22:04:27.066Z,15.50
2022-10-23T22:06:54.566Z,15.40
2022-10-23T22:09:22.804Z,15.40
2022-10-23T22:11:51.740Z,15.20
2022-10-23T22:14:19.503Z,15.20
2022-10-23T22:16:47.758Z,15.30
2022-10-23T22:19:17.577Z,15.40
2022-10-23T22:21:45.623Z,15.50
2022-10-23T22:24:13.159Z,15.90
2022-10-23T22:26:43.192Z,15.80
2022-10-23T22:29:19.393Z,15.60
2022-10-23T22:31:49.867Z,15.50
2022-10-23T22:37:12.693Z,15.30
2022-10-23T22:39:40.910Z,15.40
2022-10-23T22:42:08.710Z,15.30
2022-10-23T22:44:36.127Z,15.30
2022-10-23T22:47:03.823Z,15.30
2022-10-23T22:49:31.334Z,15.10
2022-10-23T22:51:58.726Z,15.10
2022-10-23T22:54:26.313Z,15.20
2022-10-23T22:56:53.870Z,15.30
2022-10-23T22:59:21.331Z,15.20
2022-10-23T23:01:50.472Z,15.20
2022-10-23T23:07:11.670Z,15.00
2022-10-23T23:09:41.851Z,15.20
2022-10-23T23:12:11.962Z,15.20
2022-10-23T23:14:40.038Z,15.10
2022-10-23T23:17:08.365Z,15.10
2022-10-23T23:19:36.109Z,15.00
2022-10-23T23:22:04.281Z,14.80
2022-10-23T23:24:32.206Z,14.80
2022-10-23T23:26:59.687Z,14.90
2022-10-23T23:29:28.400Z,14.90
2022-10-23T23:31:56.123Z,15.00
2022-10-23T23:34:23.705Z,15.00
2022-10-23T23:36:51.072Z,14.90
2022-10-23T23:39:18.541Z,14.80
2022-10-23T23:41:45.990Z,14.70
2022-10-23T23:44:13.447Z,14.60
2022-10-23T23:46:40.803Z,14.60
2022-10-23T23:49:08.264Z,14.70
2022-10-23T23:51:36.748Z,14.80
2022-10-23T23:54:04.625Z,14.80
2022-10-23T23:56:32.138Z,14.80
2022-10-23T23:58:59.607Z,14.80
